Terminal Aerodrome Forecast
Issued by NWS

Home | Current Version | Previous Version | Text Only | Print | Product List | Glossary On
Versions: 1 2 3 4 5 6 7 8 9 10 11 12 13
000
FTUS45 KRIW 211720
TAFRKS
TAF
KRKS 211720Z 2118/2218 27006KT P6SM FEW110
     FM211900 29010G15KT P6SM FEW150
     FM220500 06009KT P6SM FEW150
     FM221400 VRB06KT P6SM SKC=

USA.gov is the U.S. government's official web portal to all federal, state and local government web resources and services.